Time;durP1;ratioP1;P1;durP2;ratioP2;P2;SDS_P1;SDS_P2;PMS_P1;PMS_P2;Temp;Humidity;BMP_temperature;BMP_pressure;BME280_temperature;BME280_humidity;BME280_pressure;Samples;Min_cycle;Max_cycle;Signal;HPM_P1;HPM_P2
2023/09/14 05:28:35;;;;;;;13.00;10.03;;;20.90;86.00;;;;;;5068054;28;20226;-63
2023/09/14 05:31:02;;;;;;;16.10;10.90;;;21.00;85.90;;;;;;5081301;28;20204;-63
2023/09/14 05:33:30;;;;;;;11.53;10.43;;;21.10;85.80;;;;;;5080768;28;20267;-64
2023/09/14 05:35:57;;;;;;;15.77;11.43;;;21.20;85.50;;;;;;5077362;28;20682;-64
2023/09/14 05:38:24;;;;;;;12.67;10.17;;;21.30;85.30;;;;;;5073928;28;20198;-64
2023/09/14 05:40:53;;;;;;;15.93;10.20;;;21.40;85.10;;;;;;5079121;28;20642;-64
2023/09/14 05:43:20;;;;;;;13.83;10.60;;;21.40;84.90;;;;;;5075864;28;20202;-64
2023/09/14 05:45:50;;;;;;;18.83;10.33;;;21.50;84.70;;;;;;5074927;28;20534;-63
2023/09/14 05:48:17;;;;;;;18.77;9.60;;;21.70;84.40;;;;;;5079022;28;20237;-63
2023/09/14 05:50:45;;;;;;;15.00;9.53;;;21.90;83.60;;;;;;5075430;28;20310;-64
2023/09/14 07:45:48;;;;;;;9.47;8.57;;;25.60;73.60;;;;;;5069274;27;1658270;-62
2023/09/14 07:48:16;;;;;;;11.03;9.50;;;25.70;73.90;;;;;;5040860;28;20239;-62
2023/09/14 07:50:43;;;;;;;12.50;10.57;;;25.80;74.00;;;;;;5070171;28;20211;-61
2023/09/14 07:53:11;;;;;;;10.27;9.00;;;25.90;73.50;;;;;;5061666;28;20199;-61
2023/09/14 07:55:39;;;;;;;11.90;10.70;;;26.00;73.60;;;;;;5070673;28;20247;-61
2023/09/14 07:58:06;;;;;;;12.57;11.27;;;26.00;73.10;;;;;;5084314;28;20203;-61
2023/09/14 08:00:35;;;;;;;11.93;10.13;;;26.10;73.00;;;;;;5085794;28;20280;-62
2023/09/14 08:03:03;;;;;;;12.70;11.33;;;26.20;73.00;;;;;;5086421;28;20193;-61
2023/09/14 08:05:31;;;;;;;15.97;10.73;;;26.30;72.90;;;;;;5069911;28;20209;-61
2023/09/14 08:07:58;;;;;;;11.73;10.40;;;26.50;72.70;;;;;;5074909;28;20205;-61
2023/09/14 08:10:26;;;;;;;14.43;10.03;;;26.60;72.30;;;;;;5072866;28;20300;-61
2023/09/14 08:12:54;;;;;;;11.97;8.27;;;26.80;71.90;;;;;;5067818;28;20213;-62
2023/09/14 08:15:21;;;;;;;9.23;8.33;;;27.00;71.20;;;;;;5076907;28;20209;-64
2023/09/14 08:17:49;;;;;;;11.00;9.20;;;27.10;70.90;;;;;;5058602;28;20216;-61
2023/09/14 08:20:16;;;;;;;11.90;9.00;;;27.10;70.70;;;;;;5072245;28;20635;-62
2023/09/14 08:22:44;;;;;;;9.70;7.27;;;27.30;70.40;;;;;;5059708;28;20201;-62
2023/09/14 08:25:13;;;;;;;11.53;8.53;;;27.40;69.80;;;;;;5080900;28;20642;-61
2023/09/14 08:27:43;;;;;;;10.90;9.80;;;27.40;69.40;;;;;;5064974;28;20201;-59
2023/09/14 08:30:11;;;;;;;11.83;10.00;;;27.50;69.30;;;;;;5062610;28;20208;-62
2023/09/14 08:32:39;;;;;;;12.63;10.40;;;27.60;69.20;;;;;;5055640;28;20217;-62
2023/09/14 08:35:24;;;;;;;15.70;9.03;;;27.60;69.30;;;;;;5054606;28;20311;-61
2023/09/14 08:37:54;;;;;;;10.57;8.93;;;27.60;68.80;;;;;;5058953;28;20296;-61
2023/09/14 08:40:22;;;;;;;11.27;10.10;;;27.60;69.00;;;;;;5057641;28;20636;-62
2023/09/14 08:42:51;;;;;;;10.00;8.67;;;27.70;68.80;;;;;;5070939;28;20628;-62
2023/09/14 08:45:25;;;;;;;10.10;8.23;;;27.70;68.80;;;;;;5074920;28;20201;-62
2023/09/14 08:47:54;;;;;;;10.00;8.47;;;27.80;67.90;;;;;;5080006;28;20229;-62
2023/09/14 08:50:32;;;;;;;10.17;8.37;;;27.90;68.30;;;;;;5082382;28;20205;-62
2023/09/14 08:53:00;;;;;;;9.87;8.63;;;28.00;68.10;;;;;;5070811;28;20235;-62
2023/09/14 08:55:34;;;;;;;11.17;9.43;;;28.10;67.70;;;;;;5068574;28;20220;-62
2023/09/14 08:58:02;;;;;;;15.93;8.33;;;28.10;67.10;;;;;;5083205;28;20192;-62
2023/09/14 09:00:30;;;;;;;8.40;7.53;;;28.20;67.30;;;;;;5083634;28;20193;-62
2023/09/14 09:02:58;;;;;;;8.27;7.53;;;28.20;67.00;;;;;;5057615;28;20212;-62
2023/09/14 09:05:26;;;;;;;9.23;7.73;;;28.30;66.40;;;;;;5084937;28;20235;-62
2023/09/14 09:07:56;;;;;;;6.93;6.33;;;28.40;66.40;;;;;;5078694;28;20217;-62
2023/09/14 09:10:27;;;;;;;7.00;6.30;;;28.40;66.00;;;;;;5064704;28;20213;-64
2023/09/14 09:12:54;;;;;;;7.47;6.50;;;28.40;65.60;;;;;;5084095;28;20208;-65
2023/09/14 09:15:31;;;;;;;6.70;5.87;;;28.50;65.50;;;;;;5056526;28;20236;-64
2023/09/14 09:18:09;;;;;;;6.40;5.73;;;28.50;65.50;;;;;;5062723;28;20529;-64
2023/09/14 09:20:40;;;;;;;6.73;6.03;;;28.70;64.40;;;;;;5081553;28;20201;-65
2023/09/14 09:23:08;;;;;;;7.37;6.30;;;28.80;64.50;;;;;;5070299;28;20827;-65
2023/09/14 09:25:45;;;;;;;9.20;7.00;;;29.00;64.40;;;;;;5056864;28;20249;-66
2023/09/14 09:28:12;;;;;;;8.73;7.50;;;29.10;63.80;;;;;;5072661;28;20299;-65
2023/09/14 09:30:40;;;;;;;7.83;7.07;;;29.20;63.00;;;;;;5090059;28;20201;-65
2023/09/14 09:33:08;;;;;;;9.57;5.80;;;29.30;62.90;;;;;;5074453;28;20210;-66
2023/09/14 09:35:36;;;;;;;9.77;6.50;;;29.40;62.90;;;;;;5067156;28;20228;-64
2023/09/14 09:38:12;;;;;;;6.27;5.67;;;29.50;62.60;;;;;;5080142;28;20288;-65
2023/09/14 09:40:45;;;;;;;6.33;5.73;;;29.70;62.20;;;;;;5066539;28;20213;-66
2023/09/14 09:43:18;;;;;;;10.07;6.10;;;29.90;61.40;;;;;;5071225;28;20208;-66
2023/09/14 09:45:47;;;;;;;7.70;5.30;;;30.00;61.00;;;;;;5088528;28;20280;-65
2023/09/14 09:48:15;;;;;;;8.67;5.57;;;30.10;60.40;;;;;;5086581;28;20679;-65
2023/09/14 09:50:45;;;;;;;5.30;4.60;;;30.30;59.80;;;;;;5070088;28;20301;-67
2023/09/14 09:53:14;;;;;;;5.03;4.53;;;30.50;58.90;;;;;;5054993;28;20201;-67
2023/09/14 09:55:46;;;;;;;5.03;4.63;;;30.60;59.50;;;;;;5057188;28;20232;-67
2023/09/14 09:58:17;;;;;;;6.80;4.97;;;30.80;58.90;;;;;;5055460;28;20208;-65
2023/09/14 10:00:44;;;;;;;6.80;5.07;;;30.90;58.30;;;;;;5088731;28;20213;-66
2023/09/14 10:03:17;;;;;;;7.30;5.30;;;31.00;58.10;;;;;;5072179;28;20263;-64
2023/09/14 10:05:45;;;;;;;8.43;5.17;;;31.00;57.30;;;;;;5055100;28;20308;-64
2023/09/14 10:08:19;;;;;;;5.70;5.17;;;31.00;57.40;;;;;;5082220;28;20602;-64
2023/09/14 10:10:51;;;;;;;6.37;5.53;;;31.10;57.20;;;;;;5082228;28;20205;-63
2023/09/14 10:13:22;;;;;;;7.07;4.40;;;31.20;56.30;;;;;;5083050;28;20296;-65
2023/09/14 10:15:54;;;;;;;12.90;4.93;;;31.20;56.90;;;;;;5049385;28;20233;-65
2023/09/14 10:18:24;;;;;;;6.53;5.23;;;31.10;56.80;;;;;;5075942;28;20274;-64
2023/09/14 10:20:55;;;;;;;6.70;5.17;;;30.90;56.80;;;;;;5078407;28;20198;-64
2023/09/14 10:23:22;;;;;;;6.53;5.33;;;30.60;57.50;;;;;;5070193;28;20521;-64
2023/09/14 10:25:51;;;;;;;6.00;5.50;;;30.50;57.60;;;;;;5073668;28;20205;-64
2023/09/14 10:28:22;;;;;;;7.90;4.90;;;30.50;57.90;;;;;;5084011;28;20201;-63
2023/09/14 10:30:52;;;;;;;5.27;4.63;;;30.60;58.10;;;;;;5084219;28;20262;-65
2023/09/14 10:33:21;;;;;;;5.17;4.50;;;30.60;58.00;;;;;;5080764;28;20268;-63
2023/09/14 10:35:50;;;;;;;5.27;4.77;;;30.70;57.70;;;;;;5085170;28;20407;-64
2023/09/14 10:38:23;;;;;;;5.90;5.17;;;30.90;57.40;;;;;;5080520;28;20235;-64
2023/09/14 10:40:54;;;;;;;7.00;5.80;;;31.10;57.10;;;;;;5067913;28;20291;-65
2023/09/14 10:43:22;;;;;;;5.80;5.20;;;31.30;56.50;;;;;;5074881;28;20206;-63
2023/09/14 10:45:58;;;;;;;6.10;5.37;;;31.30;56.00;;;;;;5073092;28;20255;-64
2023/09/14 10:48:30;;;;;;;7.23;6.00;;;31.20;56.30;;;;;;5066993;28;20643;-63
2023/09/14 10:50:59;;;;;;;12.97;6.80;;;31.10;55.90;;;;;;5070801;28;20206;-66
2023/09/14 10:53:28;;;;;;;6.57;5.90;;;31.10;56.00;;;;;;5068346;28;20247;-65
2023/09/14 10:55:55;;;;;;;7.70;6.83;;;31.10;56.70;;;;;;5075122;28;20283;-65
2023/09/14 10:58:23;;;;;;;8.13;5.60;;;31.00;56.70;;;;;;5081707;28;20194;-64
2023/09/14 11:00:58;;;;;;;6.80;5.00;;;31.20;56.70;;;;;;5059331;28;20282;-63
2023/09/14 11:04:08;;;;;;;7.87;4.97;;;31.20;55.70;;;;;;5084344;28;20209;-64
2023/09/14 11:06:51;;;;;;;5.77;5.20;;;31.10;55.50;;;;;;5071570;28;20659;-66
2023/09/14 11:09:21;;;;;;;6.53;5.93;;;31.00;55.70;;;;;;5072276;28;20206;-65
2023/09/14 11:11:52;;;;;;;5.33;4.50;;;30.90;55.80;;;;;;5071024;28;20202;-63
2023/09/14 11:14:24;;;;;;;7.60;5.20;;;30.90;56.50;;;;;;5073850;28;20243;-65
2023/09/14 11:17:00;;;;;;;6.53;4.97;;;31.00;56.50;;;;;;5069415;28;20198;-63
2023/09/14 11:19:31;;;;;;;5.57;5.07;;;31.20;55.90;;;;;;5082754;28;20197;-64
2023/09/14 11:22:18;;;;;;;4.53;4.13;;;31.30;55.20;;;;;;5057804;28;20578;-64
2023/09/14 11:24:48;;;;;;;5.03;4.53;;;31.40;55.00;;;;;;5069623;28;20679;-64
2023/09/14 11:27:20;;;;;;;6.27;4.93;;;31.30;54.30;;;;;;5056041;28;20209;-64
2023/09/14 11:29:52;;;;;;;5.80;5.30;;;31.10;55.10;;;;;;5072180;28;20198;-65
2023/09/14 11:32:27;;;;;;;8.57;5.77;;;31.00;55.30;;;;;;5076041;28;20203;-64
2023/09/14 11:34:58;;;;;;;7.17;5.30;;;30.80;55.70;;;;;;5057186;28;20216;-64
2023/09/14 11:37:31;;;;;;;7.17;5.47;;;30.70;56.10;;;;;;5056250;28;20259;-64
2023/09/14 11:40:15;;;;;;;5.77;4.73;;;30.80;56.60;;;;;;5063655;28;20197;-64
2023/09/14 11:43:20;;;;;;;7.70;5.50;;;31.10;56.30;;;;;;5084827;28;20547;-64
2023/09/14 11:46:10;;;;;;;6.00;5.43;;;31.30;54.50;;;;;;5076022;28;20664;-64
2023/09/14 11:48:45;;;;;;;5.13;4.63;;;31.40;54.80;;;;;;5072798;28;20198;-65
2023/09/14 11:51:22;;;;;;;6.03;5.47;;;31.30;55.00;;;;;;5073503;28;20197;-64
2023/09/14 11:53:50;;;;;;;5.83;5.30;;;31.40;55.10;;;;;;5072333;28;20205;-64
2023/09/14 11:56:18;;;;;;;6.70;5.97;;;31.40;54.90;;;;;;5055577;28;20217;-64
2023/09/14 11:58:45;;;;;;;5.53;4.97;;;31.30;54.80;;;;;;5071527;28;20209;-64
2023/09/14 12:01:13;;;;;;;5.93;5.43;;;31.30;54.50;;;;;;5086000;28;20661;-64
2023/09/14 12:03:40;;;;;;;6.60;5.13;;;31.20;54.80;;;;;;5087835;28;20198;-65
2023/09/14 12:06:08;;;;;;;6.50;4.80;;;31.10;55.30;;;;;;5082133;28;20205;-65
2023/09/14 12:08:45;;;;;;;5.47;4.40;;;31.10;55.10;;;;;;5082557;28;20209;-63
2023/09/14 12:11:13;;;;;;;6.13;4.17;;;31.30;55.70;;;;;;5072131;28;20198;-63
2023/09/14 12:13:55;;;;;;;6.87;4.60;;;31.50;54.20;;;;;;5073342;28;20201;-63
2023/09/14 12:16:24;;;;;;;4.77;3.80;;;31.70;52.30;;;;;;5085540;28;20668;-64
2023/09/14 12:18:52;;;;;;;7.70;3.97;;;31.70;52.20;;;;;;5073865;28;20221;-64
2023/09/14 12:21:21;;;;;;;4.23;3.83;;;31.80;51.30;;;;;;5085293;28;20273;-63
2023/09/14 12:23:50;;;;;;;5.30;3.33;;;31.70;51.40;;;;;;5082169;28;20201;-62
2023/09/14 12:26:20;;;;;;;5.83;3.67;;;31.80;51.70;;;;;;5079990;28;20590;-63
2023/09/14 12:28:56;;;;;;;3.90;3.60;;;31.90;51.90;;;;;;5070385;28;20608;-62
2023/09/14 12:31:25;;;;;;;5.63;3.73;;;32.10;52.00;;;;;;5088978;28;20204;-64
2023/09/14 12:33:55;;;;;;;6.63;3.77;;;32.20;51.70;;;;;;5058783;28;20200;-63
2023/09/14 12:36:22;;;;;;;6.00;4.23;;;32.30;51.10;;;;;;5073123;28;20652;-63
2023/09/14 12:38:50;;;;;;;4.83;4.03;;;32.30;51.30;;;;;;5083825;28;20208;-64
2023/09/14 12:41:18;;;;;;;4.97;4.50;;;32.10;51.60;;;;;;5084666;28;20259;-65
2023/09/14 12:43:45;;;;;;;5.43;4.93;;;32.00;51.90;;;;;;5075936;28;20258;-64
2023/09/14 12:46:13;;;;;;;6.83;4.43;;;31.80;52.20;;;;;;5087758;28;20568;-64
2023/09/14 12:48:44;;;;;;;5.83;4.33;;;31.70;52.20;;;;;;5082253;28;20530;-65
2023/09/14 12:51:16;;;;;;;8.00;4.53;;;31.40;52.60;;;;;;5081824;28;20644;-63
2023/09/14 12:53:44;;;;;;;5.33;4.23;;;31.10;53.50;;;;;;5057682;28;20273;-63
2023/09/14 12:56:12;;;;;;;5.30;4.73;;;31.00;53.70;;;;;;5087643;28;20304;-64
2023/09/14 12:58:41;;;;;;;6.77;4.93;;;31.10;53.60;;;;;;5073745;28;20197;-65
2023/09/14 13:01:09;;;;;;;5.60;4.83;;;31.20;53.50;;;;;;5075505;28;20549;-64
2023/09/14 13:03:38;;;;;;;8.20;5.67;;;31.20;53.20;;;;;;5084436;28;20216;-63
2023/09/14 13:06:07;;;;;;;5.70;5.20;;;31.30;53.40;;;;;;5065856;28;20213;-62
2023/09/14 13:08:47;;;;;;;9.60;4.97;;;31.40;53.30;;;;;;5069518;28;20201;-63
2023/09/14 13:11:31;;;;;;;5.47;4.97;;;31.50;53.50;;;;;;5086878;28;20193;-64
2023/09/14 13:14:00;;;;;;;6.67;5.13;;;31.60;53.00;;;;;;5086192;28;20607;-64
2023/09/14 13:16:30;;;;;;;5.70;5.13;;;31.50;52.60;;;;;;5064047;28;20229;-65
2023/09/14 13:19:01;;;;;;;5.63;4.80;;;31.50;52.60;;;;;;5079989;28;20215;-64
2023/09/14 13:21:29;;;;;;;5.10;4.70;;;31.40;52.50;;;;;;5049558;28;20258;-63
2023/09/14 13:23:57;;;;;;;6.33;4.73;;;31.20;52.70;;;;;;5084809;28;20200;-64
2023/09/14 13:26:24;;;;;;;5.43;4.70;;;31.00;53.20;;;;;;5085296;28;20202;-64
2023/09/14 13:28:52;;;;;;;6.70;5.93;;;30.90;53.80;;;;;;5085972;28;20208;-65
2023/09/14 13:31:19;;;;;;;4.77;4.37;;;30.90;53.40;;;;;;5084438;28;20293;-64
2023/09/14 13:33:47;;;;;;;7.37;4.73;;;31.00;53.60;;;;;;5080958;28;20293;-64
2023/09/14 13:36:14;;;;;;;4.83;4.43;;;31.00;53.90;;;;;;5081354;28;20259;-64
2023/09/14 13:38:41;;;;;;;5.13;4.60;;;31.00;53.60;;;;;;5047268;28;20205;-63
2023/09/14 13:41:11;;;;;;;6.07;4.10;;;31.10;53.60;;;;;;5070433;28;20231;-62
2023/09/14 13:43:38;;;;;;;6.47;4.90;;;31.10;53.60;;;;;;5073212;28;20581;-63
2023/09/14 13:46:06;;;;;;;5.13;4.60;;;31.10;52.90;;;;;;5082579;28;20213;-61
2023/09/14 13:48:34;;;;;;;4.87;4.20;;;31.10;53.00;;;;;;5058901;28;20205;-61
2023/09/14 13:51:05;;;;;;;6.13;4.27;;;30.90;52.90;;;;;;5070833;28;20628;-62
2023/09/14 13:53:32;;;;;;;5.70;5.07;;;30.80;53.50;;;;;;5071491;28;20540;-62
2023/09/14 13:55:59;;;;;;;4.93;4.53;;;30.80;53.70;;;;;;5082752;28;20225;-63
2023/09/14 13:58:27;;;;;;;6.57;4.37;;;31.00;54.00;;;;;;5072135;28;20302;-60
2023/09/14 14:00:55;;;;;;;5.27;4.83;;;31.00;54.20;;;;;;5066355;28;20616;-63
2023/09/14 14:03:22;;;;;;;8.90;5.30;;;31.00;54.60;;;;;;5065000;28;20623;-63
2023/09/14 14:05:49;;;;;;;8.10;5.40;;;30.80;54.30;;;;;;5076451;28;20198;-64
2023/09/14 14:08:17;;;;;;;5.57;5.00;;;30.70;55.00;;;;;;5063716;28;20525;-61
2023/09/14 14:10:44;;;;;;;5.80;5.30;;;30.70;54.90;;;;;;5080740;28;20215;-65
2023/09/14 14:13:11;;;;;;;7.47;6.77;;;30.70;54.30;;;;;;5080919;28;20213;-65
2023/09/14 14:15:38;;;;;;;8.33;6.00;;;30.90;54.70;;;;;;5068762;28;20231;-64
2023/09/14 14:18:05;;;;;;;7.53;6.57;;;30.90;55.10;;;;;;5084306;28;20255;-61
2023/09/14 14:20:32;;;;;;;8.37;6.83;;;30.90;55.00;;;;;;5083806;28;20648;-63
2023/09/14 14:23:00;;;;;;;16.43;7.50;;;31.00;54.90;;;;;;5084138;28;20207;-63
2023/09/14 14:25:27;;;;;;;7.73;6.97;;;30.90;55.10;;;;;;5085168;28;20209;-62
2023/09/14 14:27:54;;;;;;;9.13;6.50;;;30.80;55.50;;;;;;5084503;28;20229;-62
2023/09/14 14:30:22;;;;;;;7.10;6.40;;;30.70;55.70;;;;;;5087366;28;20193;-60
2023/09/14 14:32:49;;;;;;;10.00;7.07;;;30.60;56.00;;;;;;5069927;28;20636;-62
2023/09/14 14:35:16;;;;;;;7.90;6.47;;;30.50;55.80;;;;;;5069192;28;20202;-63
2023/09/14 14:37:43;;;;;;;6.73;6.13;;;30.40;56.00;;;;;;5081596;28;20523;-64
2023/09/14 14:40:12;;;;;;;10.70;7.00;;;30.40;56.70;;;;;;5086447;28;20657;-61
2023/09/14 14:42:59;;;;;;;8.43;6.57;;;30.50;56.30;;;;;;5074597;28;20263;-62
2023/09/14 14:45:27;;;;;;;9.70;6.00;;;30.50;56.10;;;;;;5088909;28;20209;-62
2023/09/14 14:47:54;;;;;;;9.77;6.67;;;30.40;56.50;;;;;;5084918;28;20237;-63
2023/09/14 14:50:22;;;;;;;7.63;5.97;;;30.30;57.10;;;;;;5068873;28;20201;-62
2023/09/14 14:52:49;;;;;;;14.53;5.87;;;30.20;57.00;;;;;;5080765;28;20229;-63
2023/09/14 14:55:16;;;;;;;8.20;6.97;;;30.20;56.70;;;;;;5083789;28;20204;-62
2023/09/14 14:57:44;;;;;;;8.43;6.40;;;30.10;56.50;;;;;;5083093;28;20198;-64
2023/09/14 15:00:11;;;;;;;9.37;6.47;;;30.00;56.70;;;;;;5069280;28;20288;-62
2023/09/14 15:02:39;;;;;;;8.67;7.10;;;29.90;57.00;;;;;;5087999;28;20267;-64
2023/09/14 15:05:08;;;;;;;7.77;6.27;;;29.80;57.00;;;;;;5075798;28;20201;-64
2023/09/14 15:07:35;;;;;;;6.80;6.17;;;29.80;57.10;;;;;;5082728;28;20627;-64
2023/09/14 15:10:03;;;;;;;8.80;6.27;;;29.90;57.50;;;;;;5084108;28;20289;-64
2023/09/14 15:12:30;;;;;;;9.80;6.70;;;29.90;57.40;;;;;;5085173;28;20206;-64
2023/09/14 15:14:58;;;;;;;8.80;6.53;;;30.00;56.90;;;;;;5084708;28;20288;-64
2023/09/14 15:17:25;;;;;;;6.53;5.90;;;30.00;56.70;;;;;;5072993;28;20232;-64
2023/09/14 15:19:52;;;;;;;13.30;6.93;;;30.10;56.40;;;;;;5070215;28;20288;-64
2023/09/14 15:22:19;;;;;;;8.03;5.90;;;30.20;56.10;;;;;;5072563;28;20666;-64
2023/09/14 15:24:46;;;;;;;5.97;5.47;;;30.20;56.10;;;;;;5079410;28;20205;-64
2023/09/14 15:27:13;;;;;;;8.83;5.97;;;30.20;56.40;;;;;;5080697;28;20202;-64
2023/09/14 15:29:40;;;;;;;7.10;6.57;;;30.20;56.90;;;;;;5087600;28;20206;-64
2023/09/14 15:32:07;;;;;;;8.43;6.27;;;30.20;56.70;;;;;;5071201;28;20294;-63
2023/09/14 15:34:35;;;;;;;9.83;6.50;;;30.10;56.50;;;;;;5085268;28;20197;-64
2023/09/14 15:37:02;;;;;;;9.27;6.00;;;30.00;56.50;;;;;;5084616;28;20270;-64
2023/09/14 15:39:30;;;;;;;7.53;6.87;;;30.00;56.60;;;;;;5073631;28;20197;-63
2023/09/14 15:41:57;;;;;;;14.00;6.07;;;30.00;57.00;;;;;;5080764;28;20236;-64
2023/09/14 15:44:25;;;;;;;6.10;5.53;;;29.90;57.00;;;;;;5084216;28;20193;-63
2023/09/14 15:46:52;;;;;;;7.07;6.40;;;29.90;57.00;;;;;;5087795;28;20260;-65
2023/09/14 15:49:19;;;;;;;8.57;5.47;;;29.80;57.40;;;;;;5086831;28;20255;-63
2023/09/14 15:51:46;;;;;;;6.80;6.10;;;29.80;57.70;;;;;;5071220;28;20216;-64
2023/09/14 15:54:15;;;;;;;7.80;5.80;;;29.80;57.90;;;;;;5066947;28;20300;-63
2023/09/14 15:56:43;;;;;;;9.57;5.37;;;29.80;58.20;;;;;;5088207;28;20217;-63
2023/09/14 15:59:10;;;;;;;7.20;5.73;;;29.70;58.40;;;;;;5087327;28;20262;-63
2023/09/14 16:01:37;;;;;;;5.90;5.30;;;29.70;59.00;;;;;;5091929;28;20640;-63
2023/09/14 16:04:06;;;;;;;7.73;6.60;;;29.60;58.90;;;;;;5064956;28;20527;-63
2023/09/14 16:06:33;;;;;;;10.00;6.30;;;29.60;58.20;;;;;;5083836;28;20205;-63
2023/09/14 16:09:00;;;;;;;7.97;6.50;;;29.60;57.80;;;;;;5072217;28;20642;-64
2023/09/14 16:11:28;;;;;;;7.17;6.57;;;29.60;57.50;;;;;;5076818;28;20220;-63
2023/09/14 16:13:55;;;;;;;8.40;5.90;;;29.60;57.40;;;;;;5076779;28;20205;-63
2023/09/14 16:16:22;;;;;;;7.93;6.30;;;29.50;57.50;;;;;;5085529;28;20236;-63
2023/09/14 16:18:49;;;;;;;6.93;5.77;;;29.40;57.90;;;;;;5069155;28;20194;-63
2023/09/14 16:21:16;;;;;;;6.57;5.07;;;29.30;58.20;;;;;;5084797;28;20213;-63
2023/09/14 16:23:43;;;;;;;7.27;6.43;;;29.20;59.00;;;;;;5085910;28;20686;-63
2023/09/14 16:26:12;;;;;;;7.13;6.43;;;29.20;59.50;;;;;;5085361;28;20266;-64
2023/09/14 16:28:41;;;;;;;7.80;5.53;;;29.10;59.50;;;;;;5055936;28;20609;-64
2023/09/14 16:31:08;;;;;;;5.80;5.30;;;29.10;59.90;;;;;;5065473;28;20213;-64
2023/09/14 16:33:35;;;;;;;6.47;5.87;;;29.00;60.20;;;;;;5081689;28;20619;-64
2023/09/14 16:36:05;;;;;;;7.70;4.90;;;28.90;61.10;;;;;;5067731;28;20217;-64
2023/09/14 16:38:32;;;;;;;8.87;4.90;;;28.90;61.50;;;;;;5081901;28;20637;-63
2023/09/14 16:41:01;;;;;;;6.87;4.80;;;28.70;62.10;;;;;;5073056;28;20205;-64
2023/09/14 16:43:28;;;;;;;6.30;4.63;;;28.60;62.90;;;;;;5089244;28;20208;-64
2023/09/14 16:45:55;;;;;;;8.20;4.80;;;28.50;63.60;;;;;;5076826;28;20212;-63
2023/09/14 16:48:22;;;;;;;7.70;4.90;;;28.50;64.20;;;;;;5083145;28;20196;-64
2023/09/14 16:50:50;;;;;;;11.80;5.30;;;28.40;64.80;;;;;;5074179;28;20206;-64
2023/09/14 16:53:18;;;;;;;14.23;6.07;;;28.30;65.60;;;;;;5067727;28;20206;-64
2023/09/14 16:55:46;;;;;;;6.27;5.27;;;28.20;66.80;;;;;;5084385;28;20197;-64
2023/09/14 16:58:14;;;;;;;6.07;5.20;;;28.20;66.60;;;;;;5085427;28;20742;-64
2023/09/14 17:00:41;;;;;;;7.80;5.53;;;28.10;67.00;;;;;;5065822;28;20194;-63
2023/09/14 17:03:09;;;;;;;11.33;5.63;;;28.00;67.30;;;;;;5083707;28;20201;-64
2023/09/14 17:05:36;;;;;;;8.90;5.93;;;27.90;67.60;;;;;;5079007;28;20197;-63
2023/09/14 17:08:04;;;;;;;6.40;5.80;;;27.90;68.00;;;;;;5062049;28;20206;-61
2023/09/14 17:10:32;;;;;;;11.17;5.83;;;27.80;68.30;;;;;;5083327;28;20212;-62
2023/09/14 17:12:59;;;;;;;11.13;5.70;;;27.80;68.60;;;;;;5085052;28;20288;-59
2023/09/14 17:15:26;;;;;;;9.30;6.33;;;27.70;69.10;;;;;;5082622;28;20212;-65
2023/09/14 17:17:53;;;;;;;11.23;7.27;;;27.70;69.30;;;;;;5073709;28;20221;-60
2023/09/14 17:20:21;;;;;;;10.00;7.70;;;27.60;70.00;;;;;;5065921;28;20201;-61
2023/09/14 17:22:48;;;;;;;10.03;7.50;;;27.60;71.00;;;;;;5081656;28;20654;-63
2023/09/14 17:25:15;;;;;;;9.13;7.77;;;27.60;72.00;;;;;;5080335;28;20236;-67
2023/09/14 17:27:44;;;;;;;12.70;8.13;;;27.50;72.50;;;;;;5072537;28;20204;-62
2023/09/14 17:30:11;;;;;;;10.30;7.63;;;27.50;73.20;;;;;;5084264;28;20213;-63
2023/09/14 17:32:38;;;;;;;9.93;8.07;;;27.50;73.50;;;;;;5082541;28;20263;-62
2023/09/14 17:35:06;;;;;;;10.87;8.30;;;27.50;73.80;;;;;;5082518;28;20205;-63
2023/09/14 17:37:33;;;;;;;12.20;8.93;;;27.50;74.00;;;;;;5082202;28;20216;-63
2023/09/14 17:40:00;;;;;;;8.70;7.80;;;27.40;74.00;;;;;;5061588;28;20621;-63
2023/09/14 17:42:27;;;;;;;9.00;8.00;;;27.40;74.10;;;;;;5080248;28;20221;-63
2023/09/14 17:44:55;;;;;;;17.83;7.47;;;27.40;74.10;;;;;;5084883;28;20194;-62
2023/09/14 17:47:22;;;;;;;10.07;8.20;;;27.30;74.10;;;;;;5063319;28;20237;-62
2023/09/14 17:49:49;;;;;;;12.30;8.00;;;27.30;74.10;;;;;;5066640;28;20263;-62
2023/09/14 17:52:17;;;;;;;8.40;7.50;;;27.30;74.10;;;;;;5065083;28;20216;-62
2023/09/14 17:54:44;;;;;;;8.17;7.20;;;27.30;74.00;;;;;;5050006;28;20216;-62
2023/09/14 17:57:11;;;;;;;9.20;7.27;;;27.30;74.00;;;;;;5060703;28;20213;-62
2023/09/14 17:59:38;;;;;;;14.30;8.30;;;27.30;73.80;;;;;;5065006;28;20198;-62
2023/09/14 18:02:05;;;;;;;10.67;7.47;;;27.30;73.70;;;;;;5061198;28;20208;-62
2023/09/14 18:04:34;;;;;;;15.73;7.90;;;27.30;73.70;;;;;;5065656;28;20199;-62
2023/09/14 18:07:02;;;;;;;10.53;6.90;;;27.20;73.70;;;;;;5059809;28;20220;-62
2023/09/14 18:09:29;;;;;;;8.63;7.20;;;27.20;73.80;;;;;;5067899;28;20301;-63
2023/09/14 18:11:56;;;;;;;10.70;6.67;;;27.20;74.10;;;;;;5064095;28;20201;-62
2023/09/14 18:14:24;;;;;;;13.23;6.03;;;27.10;74.10;;;;;;5064847;28;20198;-62
2023/09/14 18:16:51;;;;;;;14.87;4.63;;;27.10;73.60;;;;;;5062324;28;20213;-64
2023/09/14 18:19:18;;;;;;;16.93;4.97;;;27.10;71.90;;;;;;5059784;28;20202;-64
2023/09/14 18:30:11;;;;;;;24.57;7.37;;;26.30;75.80;;;;;;5067380;28;20519;-65
2023/09/14 18:32:58;;;;;;;29.33;8.57;;;25.90;77.40;;;;;;5050342;28;20221;-65
2023/09/14 18:35:25;;;;;;;26.13;7.00;;;25.60;78.90;;;;;;5048977;28;20297;-64
2023/09/14 18:37:53;;;;;;;16.37;6.27;;;25.40;79.30;;;;;;5057044;28;20279;-65
2023/09/14 18:40:20;;;;;;;16.07;6.83;;;25.10;79.60;;;;;;5061787;28;20205;-64
2023/09/14 18:42:48;;;;;;;17.07;6.13;;;24.90;80.40;;;;;;5067924;28;20644;-65
2023/09/14 18:45:16;;;;;;;12.50;5.10;;;24.70;81.20;;;;;;5066879;28;20214;-65
2023/09/14 18:47:43;;;;;;;15.03;6.23;;;24.60;82.00;;;;;;5078912;28;20233;-65
2023/09/14 18:50:13;;;;;;;15.40;6.10;;;24.40;82.50;;;;;;5082472;28;20198;-65
2023/09/14 18:52:40;;;;;;;12.20;5.83;;;24.30;83.20;;;;;;5061876;28;20206;-66
2023/09/14 18:55:09;;;;;;;10.53;5.80;;;24.20;83.60;;;;;;5081932;28;20198;-65
2023/09/14 18:57:38;;;;;;;16.90;5.57;;;24.10;84.00;;;;;;5042000;28;20214;-65
2023/09/14 19:00:11;;;;;;;10.60;5.90;;;24.00;84.50;;;;;;5089987;28;20202;-66
2023/09/14 19:02:39;;;;;;;10.50;5.30;;;24.00;85.00;;;;;;5075897;28;20591;-65
2023/09/14 19:05:08;;;;;;;11.00;5.20;;;23.90;85.30;;;;;;5084415;28;20309;-65
2023/09/14 19:07:35;;;;;;;10.37;5.50;;;23.90;85.80;;;;;;5083102;28;20263;-65
2023/09/14 19:10:03;;;;;;;13.03;6.03;;;23.80;86.10;;;;;;5086181;28;20217;-65
2023/09/14 19:12:31;;;;;;;7.83;5.73;;;23.80;86.60;;;;;;5060966;28;20296;-65
2023/09/14 19:14:58;;;;;;;10.17;5.70;;;23.70;86.80;;;;;;5090425;28;20216;-64
2023/09/14 19:17:28;;;;;;;11.30;6.57;;;23.70;87.00;;;;;;5077703;28;20600;-65
2023/09/14 19:19:55;;;;;;;11.63;6.00;;;23.60;87.60;;;;;;5073807;28;20300;-65
2023/09/14 19:22:22;;;;;;;9.83;5.67;;;23.70;88.40;;;;;;5059727;28;20239;-65
2023/09/14 19:24:50;;;;;;;14.83;5.70;;;23.60;88.80;;;;;;5086785;28;20255;-65
2023/09/14 19:27:17;;;;;;;6.90;5.90;;;23.60;89.20;;;;;;5076614;28;20240;-64
2023/09/14 19:29:44;;;;;;;10.63;6.03;;;23.60;89.50;;;;;;5086471;28;20533;-65
2023/09/14 19:32:11;;;;;;;7.47;6.13;;;23.60;90.00;;;;;;5075330;28;20257;-64
2023/09/14 19:34:38;;;;;;;8.17;5.90;;;23.60;90.00;;;;;;5076155;28;20205;-65
2023/09/14 19:37:06;;;;;;;8.77;5.83;;;23.60;90.00;;;;;;5057127;28;20225;-65
2023/09/14 19:39:33;;;;;;;8.63;6.20;;;23.60;90.10;;;;;;5060847;28;20296;-65
2023/09/14 19:42:00;;;;;;;8.50;6.47;;;23.60;90.20;;;;;;5073550;28;20209;-65
2023/09/14 19:44:27;;;;;;;9.90;6.67;;;23.60;90.30;;;;;;5050725;28;20598;-65
2023/09/14 19:46:55;;;;;;;7.83;6.17;;;23.50;90.60;;;;;;5074077;28;20865;-66
2023/09/14 19:49:22;;;;;;;8.13;6.33;;;23.50;90.50;;;;;;5082211;28;20212;-65
2023/09/14 19:51:49;;;;;;;9.20;7.37;;;23.50;90.50;;;;;;5086923;28;20197;-65
2023/09/14 19:54:17;;;;;;;9.97;7.17;;;23.50;90.50;;;;;;5071540;28;20231;-65
2023/09/14 19:56:44;;;;;;;11.70;7.10;;;23.50;90.70;;;;;;5088968;28;20221;-65
2023/09/14 19:59:11;;;;;;;8.30;6.63;;;23.50;90.80;;;;;;5066542;28;20263;-64
2023/09/14 20:01:39;;;;;;;10.20;7.30;;;23.40;91.00;;;;;;5084954;28;20208;-65
2023/09/14 20:04:06;;;;;;;7.77;6.80;;;23.40;91.10;;;;;;5065458;28;20216;-65
2023/09/14 20:06:34;;;;;;;8.80;6.93;;;23.40;91.20;;;;;;5056680;28;20284;-65
2023/09/14 20:09:03;;;;;;;9.03;7.70;;;23.40;91.30;;;;;;5058901;28;20213;-65
2023/09/14 20:11:31;;;;;;;7.97;7.17;;;23.40;91.40;;;;;;5074669;28;20642;-65
2023/09/14 20:13:58;;;;;;;10.63;7.10;;;23.40;91.60;;;;;;5080948;28;20200;-65
2023/09/14 20:16:25;;;;;;;8.03;7.23;;;23.40;91.80;;;;;;5085358;28;20198;-65
2023/09/14 20:18:53;;;;;;;9.23;7.40;;;23.50;91.90;;;;;;5066704;28;20311;-65
2023/09/14 20:21:20;;;;;;;8.37;6.63;;;23.50;92.00;;;;;;5046148;28;20452;-64